Time;durP1;ratioP1;P1;durP2;ratioP2;P2;SDS_P1;SDS_P2;PMS_P1;PMS_P2;Temp;Humidity;BMP_temperature;BMP_pressure;BME280_temperature;BME280_humidity;BME280_pressure;Samples;Min_cycle;Max_cycle;Signal;HPM_P1;HPM_P2
2022/04/22 00:00:38;;;;;;;15.45;7.18;;;12.90;99.90;;;;;;5032052;28;39095;-80
2022/04/22 00:03:06;;;;;;;10.35;7.57;;;12.80;99.90;;;;;;5058558;28;36322;-81
2022/04/22 00:05:33;;;;;;;9.07;6.90;;;12.70;99.90;;;;;;5022661;28;38366;-81
2022/04/22 00:08:01;;;;;;;9.77;7.10;;;12.70;99.90;;;;;;5033191;28;38865;-81
2022/04/22 00:10:28;;;;;;;12.90;7.80;;;12.60;99.90;;;;;;5027445;28;48951;-80
2022/04/22 00:12:54;;;;;;;10.02;6.95;;;12.60;99.90;;;;;;5028257;28;36655;-81
2022/04/22 00:15:21;;;;;;;9.20;6.68;;;12.50;99.90;;;;;;5042468;28;38160;-81
2022/04/22 00:17:47;;;;;;;7.38;6.32;;;12.50;99.90;;;;;;5026644;28;37619;-81
2022/04/22 00:20:13;;;;;;;14.48;6.43;;;12.40;99.90;;;;;;5051113;28;37025;-81
2022/04/22 00:22:41;;;;;;;10.40;6.57;;;12.40;99.90;;;;;;5034487;28;37267;-80
2022/04/22 00:25:12;;;;;;;8.73;5.68;;;12.30;99.90;;;;;;5040605;28;37490;-80
2022/04/22 00:27:39;;;;;;;12.18;6.85;;;12.20;99.90;;;;;;5040461;28;39011;-80
2022/04/22 00:30:10;;;;;;;8.90;6.07;;;12.20;99.90;;;;;;5025055;28;40402;-80
2022/04/22 00:32:38;;;;;;;9.50;6.07;;;12.10;99.90;;;;;;5039457;28;38409;-81
2022/04/22 00:35:05;;;;;;;7.35;6.25;;;12.10;99.90;;;;;;5039127;28;40251;-80
2022/04/22 00:37:31;;;;;;;8.90;6.50;;;12.00;99.90;;;;;;5044015;28;37325;-80
2022/04/22 00:39:57;;;;;;;12.38;6.45;;;12.00;99.90;;;;;;5054579;28;37254;-81
2022/04/22 00:42:26;;;;;;;10.98;6.78;;;11.90;99.90;;;;;;5039036;28;35895;-81
2022/04/22 00:44:52;;;;;;;11.43;7.00;;;11.90;99.90;;;;;;5042311;28;38082;-79
2022/04/22 00:47:18;;;;;;;8.70;6.82;;;11.80;99.90;;;;;;5027615;28;38370;-80
2022/04/22 00:49:44;;;;;;;11.50;7.05;;;11.80;99.90;;;;;;5051602;28;37154;-79
2022/04/22 00:52:12;;;;;;;12.27;6.80;;;11.80;99.90;;;;;;5026051;28;35634;-78
2022/04/22 00:54:38;;;;;;;15.50;6.82;;;11.80;99.90;;;;;;5055687;28;37641;-77
2022/04/22 00:57:05;;;;;;;8.85;6.63;;;11.70;99.90;;;;;;5023534;28;38122;-79
2022/04/22 00:59:33;;;;;;;9.75;7.50;;;11.80;99.90;;;;;;5025355;28;38443;-79
2022/04/22 01:01:59;;;;;;;11.07;6.85;;;11.70;99.90;;;;;;5023290;28;37192;-77
2022/04/22 01:09:56;;;;;;;11.27;7.85;;;11.70;99.90;;;;;;5025593;28;38712;-79
2022/04/22 01:12:22;;;;;;;10.10;7.28;;;11.70;99.90;;;;;;5023046;28;37270;-77
2022/04/22 01:14:48;;;;;;;11.23;7.25;;;11.70;99.90;;;;;;5023728;28;37907;-78
2022/04/22 01:17:14;;;;;;;12.45;7.25;;;11.60;99.90;;;;;;5022495;28;37496;-77
2022/04/22 01:19:41;;;;;;;9.85;6.70;;;11.60;99.90;;;;;;5039673;28;37018;-77
2022/04/22 01:22:08;;;;;;;8.73;7.28;;;11.60;99.90;;;;;;5040508;28;38419;-78
2022/04/22 01:24:35;;;;;;;9.35;6.90;;;11.60;99.90;;;;;;5041471;28;37316;-77
2022/04/22 01:27:03;;;;;;;9.85;7.05;;;11.50;99.90;;;;;;5044385;28;37051;-78
2022/04/22 01:29:29;;;;;;;12.23;7.18;;;11.40;99.90;;;;;;5008829;28;38312;-77
2022/04/22 01:31:55;;;;;;;12.48;7.57;;;11.30;99.90;;;;;;5040838;28;37801;-78
2022/04/22 01:34:21;;;;;;;11.15;7.50;;;11.20;99.90;;;;;;5016142;28;40175;-78
2022/04/22 01:36:47;;;;;;;10.55;7.13;;;11.20;99.90;;;;;;5051872;28;40460;-78
2022/04/22 01:39:13;;;;;;;8.90;6.57;;;11.20;99.90;;;;;;5050011;28;39791;-78
2022/04/22 01:41:41;;;;;;;9.10;7.22;;;11.10;99.90;;;;;;5049264;28;37532;-78
2022/04/22 01:44:07;;;;;;;11.98;7.30;;;11.10;99.90;;;;;;5043033;28;39838;-78
2022/04/22 01:46:33;;;;;;;11.13;7.15;;;11.00;99.90;;;;;;5025221;28;39183;-77
2022/04/22 01:49:00;;;;;;;9.88;7.25;;;11.10;99.90;;;;;;5042951;28;38677;-77
2022/04/22 01:51:26;;;;;;;11.38;7.75;;;11.00;99.90;;;;;;5042914;28;37054;-77
2022/04/22 01:53:52;;;;;;;8.65;7.28;;;11.00;99.90;;;;;;5045381;28;39848;-77
2022/04/22 01:56:18;;;;;;;9.23;7.25;;;11.00;99.90;;;;;;5042772;28;38623;-77
2022/04/22 01:58:44;;;;;;;10.68;7.28;;;11.00;99.90;;;;;;5040648;28;37762;-78
2022/04/22 02:01:11;;;;;;;9.65;7.53;;;10.90;99.90;;;;;;5038387;28;38833;-77
2022/04/22 02:03:37;;;;;;;10.80;7.97;;;10.80;99.90;;;;;;5026084;28;39689;-78
2022/04/22 02:06:04;;;;;;;12.65;7.90;;;10.80;99.90;;;;;;5042178;28;40012;-77
2022/04/22 02:08:31;;;;;;;11.13;8.23;;;10.80;99.90;;;;;;5045103;28;39632;-78
2022/04/22 02:10:57;;;;;;;14.93;8.10;;;10.70;99.90;;;;;;5042991;28;36751;-77
2022/04/22 02:13:23;;;;;;;11.25;8.07;;;10.70;99.90;;;;;;5057448;28;40479;-78
2022/04/22 02:15:49;;;;;;;9.90;7.75;;;10.80;99.90;;;;;;5045287;28;39729;-79
2022/04/22 02:18:15;;;;;;;11.20;8.68;;;10.70;99.90;;;;;;5045784;28;37980;-78
2022/04/22 02:20:41;;;;;;;12.85;8.75;;;10.70;99.90;;;;;;5046699;28;37572;-77
2022/04/22 02:23:07;;;;;;;11.50;8.13;;;10.70;99.90;;;;;;5040919;28;38782;-77
2022/04/22 02:25:33;;;;;;;10.75;7.63;;;10.70;99.90;;;;;;5043423;28;40183;-78
2022/04/22 02:30:44;;;;;;;10.95;7.80;;;10.50;99.90;;;;;;5018993;28;49892;-78
2022/04/22 02:33:11;;;;;;;11.70;7.80;;;10.60;99.90;;;;;;5035797;28;39785;-78
2022/04/22 02:35:37;;;;;;;11.63;7.82;;;10.60;99.90;;;;;;5017245;28;37210;-77
2022/04/22 02:38:04;;;;;;;13.45;8.15;;;10.60;99.90;;;;;;5017811;28;38140;-77
2022/04/22 02:45:59;;;;;;;12.15;8.90;;;10.50;99.90;;;;;;5018482;28;39822;-78
2022/04/22 02:48:25;;;;;;;13.07;9.57;;;10.50;99.90;;;;;;5034727;28;37890;-77
2022/04/22 02:50:52;;;;;;;10.35;8.13;;;10.40;99.90;;;;;;5025065;28;37270;-78
2022/04/22 02:53:18;;;;;;;14.82;8.55;;;10.40;99.90;;;;;;5018851;28;40441;-77
2022/04/22 02:55:49;;;;;;;12.20;8.63;;;10.40;99.90;;;;;;5020013;28;38969;-76
2022/04/22 02:58:15;;;;;;;12.57;8.88;;;10.40;99.90;;;;;;5033990;28;39293;-77
2022/04/22 03:00:41;;;;;;;14.52;8.80;;;10.40;99.90;;;;;;5022716;28;36825;-77
2022/04/22 03:03:07;;;;;;;13.52;8.05;;;10.40;99.90;;;;;;5049988;28;39339;-77
2022/04/22 03:05:34;;;;;;;14.63;9.38;;;10.30;99.90;;;;;;5043910;28;39316;-77
2022/04/22 03:08:01;;;;;;;11.02;8.88;;;10.30;99.90;;;;;;5039417;28;39707;-76
2022/04/22 03:10:27;;;;;;;12.48;8.35;;;10.30;99.90;;;;;;5023488;28;49522;-77
2022/04/22 03:12:53;;;;;;;11.68;8.27;;;10.30;99.90;;;;;;5022519;28;37757;-75
2022/04/22 03:15:20;;;;;;;13.30;8.57;;;10.40;99.90;;;;;;5033250;28;39061;-76
2022/04/22 03:17:48;;;;;;;10.85;8.27;;;10.40;99.90;;;;;;5021869;28;38388;-76
2022/04/22 03:20:15;;;;;;;12.45;8.65;;;10.30;99.90;;;;;;5037108;28;38678;-77
2022/04/22 03:22:41;;;;;;;11.15;8.70;;;10.30;99.90;;;;;;5024356;28;38523;-78
2022/04/22 03:25:08;;;;;;;12.48;8.75;;;10.20;99.90;;;;;;5021234;28;38543;-76
2022/04/22 03:27:34;;;;;;;13.40;8.77;;;10.20;99.90;;;;;;5015740;28;36808;-77
2022/04/22 03:30:02;;;;;;;12.63;8.98;;;10.20;99.90;;;;;;5039362;28;36033;-78
2022/04/22 03:32:29;;;;;;;17.08;9.73;;;10.20;99.90;;;;;;5024656;28;39203;-76
2022/04/22 03:34:55;;;;;;;13.98;8.82;;;10.20;99.90;;;;;;5041304;28;39446;-77
2022/04/22 03:37:21;;;;;;;15.02;9.18;;;10.30;99.90;;;;;;5060026;28;38159;-77
2022/04/22 03:39:47;;;;;;;12.25;8.23;;;10.20;99.90;;;;;;5021860;28;37604;-76
2022/04/22 03:42:13;;;;;;;13.70;8.48;;;10.20;99.90;;;;;;5024422;28;38700;-77
2022/04/22 03:44:40;;;;;;;11.15;8.73;;;10.20;99.90;;;;;;5030674;28;39409;-77
2022/04/22 03:47:07;;;;;;;14.07;9.02;;;10.20;99.90;;;;;;5026479;28;36503;-78
2022/04/22 03:49:34;;;;;;;15.07;8.93;;;10.10;99.90;;;;;;5019448;28;37325;-78
2022/04/22 03:52:00;;;;;;;16.60;8.75;;;10.10;99.90;;;;;;5029415;28;37839;-78
2022/04/22 03:54:26;;;;;;;16.80;8.65;;;10.10;99.90;;;;;;5026874;28;38516;-78
2022/04/22 03:59:37;;;;;;;14.23;8.68;;;10.00;99.90;;;;;;5019180;28;48248;-78
2022/04/22 04:02:04;;;;;;;13.55;8.25;;;9.90;99.90;;;;;;5035162;28;39306;-79
2022/04/22 04:04:30;;;;;;;11.88;7.70;;;9.80;99.90;;;;;;5018290;28;38508;-78
2022/04/22 04:06:56;;;;;;;12.55;8.40;;;9.80;99.90;;;;;;5018496;28;37879;-78
2022/04/22 04:17:38;;;;;;;11.20;8.02;;;10.00;99.90;;;;;;5041348;28;49672;-79
2022/04/22 04:25:35;;;;;;;11.68;7.50;;;10.00;99.90;;;;;;5044017;28;49408;-79
2022/04/22 04:28:02;;;;;;;11.50;8.40;;;10.00;99.90;;;;;;5028022;28;37060;-79
2022/04/22 04:30:28;;;;;;;12.57;8.57;;;10.00;99.90;;;;;;5036642;28;47322;-78
2022/04/22 04:32:55;;;;;;;12.30;7.55;;;10.00;99.90;;;;;;5027415;28;38930;-79
2022/04/22 04:35:21;;;;;;;10.80;8.38;;;10.00;99.90;;;;;;5058443;28;37524;-78
2022/04/22 04:37:47;;;;;;;16.60;7.60;;;10.00;99.90;;;;;;5044404;28;38441;-78
2022/04/22 04:40:13;;;;;;;14.00;8.50;;;10.00;99.90;;;;;;5041613;28;36081;-79
2022/04/22 04:42:41;;;;;;;14.95;8.98;;;9.90;99.90;;;;;;5038535;28;39830;-79
2022/04/22 04:45:08;;;;;;;13.85;9.00;;;9.90;99.90;;;;;;5037850;28;38030;-79
2022/04/22 04:47:41;;;;;;;11.80;9.00;;;9.90;99.90;;;;;;5038049;28;36804;-78
2022/04/22 04:50:09;;;;;;;13.27;9.07;;;9.90;99.90;;;;;;5043038;28;36495;-78
2022/04/22 04:52:37;;;;;;;14.32;9.70;;;9.80;99.90;;;;;;5036845;28;38786;-77
2022/04/22 04:55:07;;;;;;;13.60;9.02;;;9.90;99.90;;;;;;5022858;28;38440;-78
2022/04/22 04:57:34;;;;;;;16.25;9.15;;;9.80;99.90;;;;;;5043193;28;38975;-77
2022/04/22 05:00:08;;;;;;;16.95;9.57;;;9.80;99.90;;;;;;5036633;28;37163;-77
2022/04/22 05:02:35;;;;;;;14.10;9.95;;;9.80;99.90;;;;;;5017376;28;46091;-77
2022/04/22 05:05:05;;;;;;;15.05;11.02;;;9.80;99.90;;;;;;5033776;28;42673;-77
2022/04/22 05:07:45;;;;;;;13.63;10.15;;;9.80;99.90;;;;;;5013525;28;48357;-77
2022/04/22 05:10:11;;;;;;;17.48;10.43;;;9.80;99.90;;;;;;5030596;28;37533;-77
2022/04/22 05:12:37;;;;;;;15.18;11.02;;;9.80;99.90;;;;;;5012539;28;38542;-78
2022/04/22 05:15:04;;;;;;;14.02;9.98;;;9.80;99.90;;;;;;5015345;28;37203;-79
2022/04/22 05:17:30;;;;;;;16.45;11.02;;;9.80;99.90;;;;;;5047128;28;36579;-78
2022/04/22 05:19:56;;;;;;;12.77;10.30;;;9.80;99.90;;;;;;5031619;28;36455;-78
2022/04/22 05:22:22;;;;;;;18.02;10.98;;;9.80;99.90;;;;;;5050844;28;37585;-78
2022/04/22 05:24:48;;;;;;;14.10;10.80;;;9.80;99.90;;;;;;5013814;28;38203;-78
2022/04/22 05:27:14;;;;;;;16.63;10.52;;;9.80;99.90;;;;;;5012798;28;38180;-79
2022/04/22 05:32:37;;;;;;;17.02;10.68;;;9.80;99.90;;;;;;5022649;28;39625;-77
2022/04/22 05:35:08;;;;;;;20.83;11.00;;;9.90;99.90;;;;;;5026251;28;38829;-78
2022/04/22 05:37:49;;;;;;;17.60;11.15;;;9.90;99.90;;;;;;5054365;28;39365;-77
2022/04/22 05:40:17;;;;;;;16.50;11.73;;;9.90;99.90;;;;;;5024300;28;37606;-78
2022/04/22 05:42:45;;;;;;;16.35;12.45;;;10.00;99.90;;;;;;5015215;28;39708;-77
2022/04/22 05:45:13;;;;;;;15.52;11.32;;;10.00;99.90;;;;;;5025160;28;38038;-78
2022/04/22 05:47:40;;;;;;;17.55;13.15;;;10.10;99.90;;;;;;5029262;28;38072;-75
2022/04/22 05:50:08;;;;;;;16.55;12.13;;;10.20;99.90;;;;;;5013849;28;37193;-75
2022/04/22 05:52:35;;;;;;;18.25;11.73;;;10.20;99.90;;;;;;5034876;28;39494;-76
2022/04/22 05:55:03;;;;;;;16.25;12.27;;;10.20;99.90;;;;;;5022145;28;39646;-76
2022/04/22 05:57:33;;;;;;;17.60;12.15;;;10.20;99.90;;;;;;5017163;28;38098;-74
2022/04/22 06:00:03;;;;;;;16.90;12.77;;;10.30;99.90;;;;;;5032740;28;38169;-74
2022/04/22 06:02:30;;;;;;;18.27;12.40;;;10.30;99.90;;;;;;5015242;28;48821;-75
2022/04/22 06:04:56;;;;;;;17.67;12.93;;;10.30;99.90;;;;;;5019068;28;39968;-75
2022/04/22 06:07:22;;;;;;;16.10;13.00;;;10.40;99.90;;;;;;5018808;28;37486;-75
2022/04/22 06:12:33;;;;;;;19.10;12.43;;;10.40;99.90;;;;;;5022508;28;49042;-75
2022/04/22 06:15:00;;;;;;;16.50;12.18;;;10.50;99.90;;;;;;5053286;28;38591;-75
2022/04/22 06:17:27;;;;;;;16.67;12.32;;;10.50;99.90;;;;;;5020462;28;38154;-75
2022/04/22 06:19:54;;;;;;;16.25;12.70;;;10.50;99.90;;;;;;5034459;28;38041;-75
2022/04/22 06:22:20;;;;;;;18.40;12.18;;;10.60;99.90;;;;;;5018935;28;39404;-75
2022/04/22 06:24:46;;;;;;;17.17;11.70;;;10.60;99.90;;;;;;5016152;28;39461;-75
2022/04/22 06:27:13;;;;;;;15.73;11.95;;;10.60;99.90;;;;;;5021847;28;38130;-75
2022/04/22 06:29:39;;;;;;;16.30;13.60;;;10.70;99.90;;;;;;5015526;28;36056;-75
2022/04/22 06:32:05;;;;;;;18.90;12.40;;;10.70;99.90;;;;;;5032983;28;39474;-76
2022/04/22 06:34:31;;;;;;;15.95;12.07;;;10.70;99.90;;;;;;5019814;28;38361;-75
2022/04/22 06:36:58;;;;;;;14.73;11.45;;;10.80;99.90;;;;;;5059014;28;39188;-75
2022/04/22 06:39:24;;;;;;;16.77;11.70;;;10.90;99.90;;;;;;5022187;28;38424;-75
2022/04/22 06:47:22;;;;;;;13.52;11.68;;;11.00;99.90;;;;;;5018953;28;38680;-75
2022/04/22 06:49:48;;;;;;;14.20;11.52;;;11.10;99.90;;;;;;5020077;28;37477;-75
2022/04/22 06:52:14;;;;;;;14.63;11.27;;;11.00;99.90;;;;;;5057439;28;38917;-75
2022/04/22 06:54:40;;;;;;;17.73;12.35;;;11.20;99.90;;;;;;5024540;28;39064;-75
2022/04/22 06:57:07;;;;;;;14.73;11.13;;;11.20;99.90;;;;;;5023544;28;38993;-75
2022/04/22 06:59:35;;;;;;;14.43;11.65;;;11.20;99.90;;;;;;5019908;28;38834;-76
2022/04/22 07:02:01;;;;;;;13.32;10.50;;;11.30;99.90;;;;;;5016136;28;37589;-76
2022/04/22 07:04:28;;;;;;;13.57;10.40;;;11.30;99.90;;;;;;5031059;28;38861;-75
2022/04/22 07:06:54;;;;;;;13.05;10.45;;;11.50;99.90;;;;;;5013094;28;38934;-75
2022/04/22 07:09:20;;;;;;;15.02;10.18;;;11.60;99.90;;;;;;5042156;28;37921;-76
2022/04/22 07:11:51;;;;;;;13.25;11.18;;;11.80;99.90;;;;;;5029917;28;39765;-76
2022/04/22 07:14:17;;;;;;;17.35;11.50;;;11.70;99.90;;;;;;5027402;28;38765;-77
2022/04/22 07:16:44;;;;;;;15.25;11.50;;;11.70;99.90;;;;;;5024547;28;37519;-76
2022/04/22 07:19:11;;;;;;;16.75;10.68;;;11.80;99.90;;;;;;5020734;28;36908;-76
2022/04/22 07:21:37;;;;;;;15.00;11.38;;;11.90;99.90;;;;;;5022614;28;39149;-77
2022/04/22 07:24:04;;;;;;;12.25;10.95;;;12.10;99.90;;;;;;5015192;28;38271;-79
2022/04/22 07:26:32;;;;;;;13.85;10.57;;;12.30;99.90;;;;;;5022168;28;37481;-78
2022/04/22 07:29:00;;;;;;;13.68;11.23;;;12.40;99.90;;;;;;5032136;28;39295;-78
2022/04/22 07:31:30;;;;;;;17.75;12.15;;;12.40;99.90;;;;;;5055890;28;39082;-79
2022/04/22 07:33:57;;;;;;;14.63;11.90;;;12.30;99.90;;;;;;5024797;28;37414;-78
2022/04/22 07:36:23;;;;;;;13.25;11.55;;;12.30;99.90;;;;;;5022808;28;37723;-79
2022/04/22 07:38:49;;;;;;;12.75;10.90;;;12.40;99.90;;;;;;5038432;28;38389;-76
2022/04/22 07:41:20;;;;;;;15.52;12.20;;;12.30;99.90;;;;;;5031902;28;38144;-77
2022/04/22 07:46:48;;;;;;;14.75;11.98;;;12.70;99.90;;;;;;5024561;28;49170;-79
2022/04/22 07:49:15;;;;;;;14.60;11.13;;;12.70;99.90;;;;;;5036365;28;37628;-77
2022/04/22 07:51:42;;;;;;;14.32;11.43;;;12.80;99.90;;;;;;5014628;28;38146;-76
2022/04/22 07:54:08;;;;;;;15.52;11.70;;;13.00;99.90;;;;;;5013619;28;37525;-76
2022/04/22 07:56:34;;;;;;;12.35;10.77;;;13.20;99.90;;;;;;5033740;28;39714;-78
2022/04/22 07:59:00;;;;;;;12.90;11.55;;;13.50;99.90;;;;;;5048544;28;39020;-79
2022/04/22 08:01:27;;;;;;;13.77;11.38;;;13.40;99.90;;;;;;5016761;28;41427;-77
2022/04/22 08:03:55;;;;;;;14.27;11.38;;;13.60;99.90;;;;;;5050184;28;38100;-77
2022/04/22 08:06:21;;;;;;;14.57;11.35;;;13.70;99.90;;;;;;5032699;28;38078;-77
2022/04/22 08:08:48;;;;;;;12.90;10.43;;;13.70;99.90;;;;;;5024473;28;38964;-76
2022/04/22 08:11:14;;;;;;;15.27;11.68;;;13.50;99.90;;;;;;5028939;28;39129;-78
2022/04/22 08:13:41;;;;;;;13.93;11.40;;;13.50;99.90;;;;;;5027364;28;37513;-79
2022/04/22 08:16:08;;;;;;;16.42;11.90;;;13.80;99.90;;;;;;5036763;28;39096;-79
2022/04/22 08:18:34;;;;;;;14.43;11.43;;;13.80;99.90;;;;;;5044638;28;36622;-79
2022/04/22 08:21:00;;;;;;;13.63;11.52;;;13.60;99.90;;;;;;5029849;28;38769;-78
2022/04/22 08:23:26;;;;;;;14.73;11.68;;;13.70;99.90;;;;;;5025541;28;39042;-79
2022/04/22 08:25:52;;;;;;;12.70;11.18;;;13.90;99.90;;;;;;5033577;28;39899;-78
2022/04/22 08:28:18;;;;;;;17.15;12.10;;;14.40;99.90;;;;;;5051236;28;37209;-78
2022/04/22 08:30:44;;;;;;;14.48;11.02;;;14.50;99.90;;;;;;5050056;28;38536;-76
2022/04/22 08:33:11;;;;;;;15.95;11.50;;;14.30;99.90;;;;;;5049514;28;38896;-78
2022/04/22 08:35:37;;;;;;;12.70;10.52;;;14.30;99.90;;;;;;5047910;28;37945;-78
2022/04/22 08:38:06;;;;;;;12.60;11.15;;;14.00;99.90;;;;;;5047543;28;38085;-78
2022/04/22 08:40:39;;;;;;;15.13;11.20;;;13.90;99.90;;;;;;5034128;28;39686;-77
2022/04/22 08:43:08;;;;;;;;;;;13.90;99.90;;;;;;5051476;28;39588;-80
2022/04/22 08:45:35;;;;;;;12.25;10.23;;;13.70;99.90;;;;;;5029885;28;38657;-78
2022/04/22 08:50:59;;;;;;;14.05;9.85;;;14.20;99.90;;;;;;5048912;28;49248;-80
2022/04/22 08:53:29;;;;;;;15.18;10.50;;;14.80;99.90;;;;;;5050807;28;38424;-77
2022/04/22 08:55:57;;;;;;;12.15;8.98;;;14.80;99.90;;;;;;5052234;28;38481;-77
2022/04/22 08:58:25;;;;;;;11.18;9.45;;;14.60;99.90;;;;;;5044865;28;37295;-78
2022/04/22 09:00:53;;;;;;;10.98;8.63;;;14.90;99.90;;;;;;5041287;28;38080;-78
2022/04/22 09:03:20;;;;;;;14.07;9.45;;;15.00;99.90;;;;;;5042444;28;38795;-79
2022/04/22 09:05:47;;;;;;;9.75;8.63;;;15.10;99.90;;;;;;5054512;28;39029;-79
2022/04/22 09:08:14;;;;;;;14.10;8.23;;;15.10;99.90;;;;;;5033599;28;36295;-80
2022/04/22 09:10:42;;;;;;;12.18;9.02;;;15.10;99.90;;;;;;5047300;28;40680;-79
2022/04/22 09:13:10;;;;;;;10.52;8.57;;;15.20;99.90;;;;;;5042300;28;38319;-78
2022/04/22 09:15:38;;;;;;;14.30;10.60;;;15.50;99.90;;;;;;5051822;28;37051;-79
2022/04/22 09:18:12;;;;;;;10.43;8.48;;;15.80;99.90;;;;;;5058606;28;37284;-79
2022/04/22 09:20:39;;;;;;;9.88;8.50;;;15.50;99.90;;;;;;5031209;28;39414;-78
2022/04/22 09:23:34;;;;;;;12.63;9.30;;;15.70;99.90;;;;;;5051818;28;38973;-78
2022/04/22 09:26:03;;;;;;;12.48;8.95;;;16.00;99.90;;;;;;5050441;28;39145;-78
2022/04/22 09:28:29;;;;;;;11.05;8.93;;;16.30;99.90;;;;;;5042968;28;49610;-76
2022/04/22 09:31:01;;;;;;;13.00;8.70;;;16.70;99.90;;;;;;5049304;28;38283;-79
2022/04/22 09:33:48;;;;;;;10.80;8.00;;;17.00;99.90;;;;;;5034645;28;47471;-77
2022/04/22 09:45:05;;;;;;;13.00;9.77;;;15.30;99.90;;;;;;5046843;28;49593;-78
2022/04/22 09:47:33;;;;;;;12.63;9.35;;;15.30;99.90;;;;;;5051346;28;46605;-79
2022/04/22 09:50:01;;;;;;;9.95;8.65;;;15.60;99.90;;;;;;5042652;28;39465;-78
2022/04/22 09:52:31;;;;;;;10.93;8.45;;;16.30;99.90;;;;;;5046598;28;48581;-79
2022/04/22 09:55:04;;;;;;;11.43;8.35;;;16.90;99.90;;;;;;5024681;28;39247;-78
2022/04/22 09:57:58;;;;;;;12.13;8.65;;;17.30;99.90;;;;;;5004767;28;47466;-79
2022/04/22 10:00:30;;;;;;;9.07;7.43;;;16.60;99.90;;;;;;5044200;28;36680;-77
2022/04/22 10:02:56;;;;;;;12.82;8.02;;;16.10;99.90;;;;;;5021652;28;40607;-79
2022/04/22 10:05:25;;;;;;;11.48;7.70;;;16.50;99.90;;;;;;5050422;28;39461;-80
2022/04/22 10:07:56;;;;;;;9.65;7.57;;;17.00;99.90;;;;;;5036791;28;38017;-80
2022/04/22 10:10:35;;;;;;;13.57;8.13;;;17.50;99.90;;;;;;5031475;28;38361;-78
2022/04/22 10:13:04;;;;;;;12.95;9.13;;;18.00;99.90;;;;;;5031389;28;38904;-80
2022/04/22 10:15:35;;;;;;;9.82;6.80;;;18.00;99.90;;;;;;5027556;28;48633;-76
2022/04/22 10:18:01;;;;;;;10.10;7.55;;;18.00;99.90;;;;;;5046006;28;39493;-79
2022/04/22 10:20:29;;;;;;;10.55;7.05;;;18.00;99.90;;;;;;5037791;28;48786;-78
2022/04/22 10:22:57;;;;;;;8.93;6.85;;;17.90;99.90;;;;;;5026797;28;39894;-78
2022/04/22 10:25:23;;;;;;;10.30;6.95;;;18.10;99.90;;;;;;5048973;28;39947;-80
2022/04/22 10:27:52;;;;;;;10.38;7.32;;;18.30;99.90;;;;;;5040016;28;37979;-80
2022/04/22 10:30:19;;;;;;;9.95;7.85;;;18.30;99.90;;;;;;5056786;28;38409;-79
2022/04/22 10:32:48;;;;;;;7.82;6.72;;;18.00;99.90;;;;;;5033902;28;38784;-79
2022/04/22 10:35:15;;;;;;;11.38;6.88;;;18.10;99.90;;;;;;5034920;28;38269;-78
2022/04/22 10:37:41;;;;;;;9.77;6.20;;;17.70;99.90;;;;;;5047587;28;39797;-79
2022/04/22 10:40:23;;;;;;;8.65;6.25;;;17.50;99.90;;;;;;5046460;28;36696;-81
2022/04/22 10:42:51;;;;;;;8.23;5.53;;;17.80;99.90;;;;;;5040004;28;39361;-80
2022/04/22 10:48:26;;;;;;;6.70;4.88;;;17.80;99.90;;;;;;5058096;28;40260;-80
2022/04/22 10:51:02;;;;;;;9.35;6.88;;;17.80;99.90;;;;;;5054960;28;37887;-80
2022/04/22 10:53:40;;;;;;;7.88;5.72;;;17.80;99.90;;;;;;5041664;28;46905;-81
2022/04/22 10:56:25;;;;;;;10.63;6.70;;;17.50;99.90;;;;;;5055957;28;38711;-80
2022/04/22 10:59:15;;;;;;;8.90;5.32;;;17.40;99.90;;;;;;5038061;28;37103;-80
2022/04/22 11:01:43;;;;;;;7.97;5.05;;;17.70;99.90;;;;;;5036437;28;47371;-79
2022/04/22 11:04:24;;;;;;;8.32;5.05;;;18.40;99.90;;;;;;5036100;28;38432;-81
2022/04/22 11:06:52;;;;;;;7.40;6.20;;;18.60;99.90;;;;;;5024450;28;37339;-81
2022/04/22 11:09:30;;;;;;;10.02;6.07;;;17.80;99.90;;;;;;5057617;28;38502;-80
2022/04/22 11:11:58;;;;;;;8.60;6.10;;;17.40;99.90;;;;;;5026750;28;37718;-79
2022/04/22 11:14:32;;;;;;;11.55;5.63;;;17.30;99.90;;;;;;5048476;28;39169;-79
2022/04/22 11:17:46;;;;;;;9.98;5.65;;;16.90;99.90;;;;;;5041227;28;38603;-78
2022/04/22 11:20:14;;;;;;;9.75;5.75;;;16.70;99.90;;;;;;5054535;28;48352;-80
2022/04/22 11:22:56;;;;;;;8.40;4.97;;;16.60;99.90;;;;;;5034588;28;37596;-77
2022/04/22 11:25:27;;;;;;;11.25;5.40;;;16.70;99.90;;;;;;5032025;28;39603;-78
2022/04/22 11:27:59;;;;;;;7.18;4.68;;;16.90;99.90;;;;;;5052020;28;37825;-81
2022/04/22 11:30:26;;;;;;;6.85;5.03;;;17.20;99.90;;;;;;5038862;28;37863;-78
2022/04/22 11:33:02;;;;;;;8.13;5.68;;;17.70;99.90;;;;;;5036354;28;37223;-77
2022/04/22 11:35:33;;;;;;;9.20;5.20;;;18.00;99.90;;;;;;5047058;28;47335;-78
2022/04/22 11:38:04;;;;;;;10.23;4.72;;;18.00;99.90;;;;;;5016932;28;38762;-78
2022/04/22 11:40:35;;;;;;;6.57;4.88;;;18.10;99.90;;;;;;5057715;28;47656;-79
2022/04/22 11:43:10;;;;;;;7.85;4.80;;;17.80;99.90;;;;;;5055275;28;37388;-78
2022/04/22 11:45:46;;;;;;;8.57;4.57;;;17.60;99.90;;;;;;5064540;28;47056;-78
2022/04/22 11:48:14;;;;;;;6.65;4.43;;;17.40;99.90;;;;;;5058530;28;37364;-78
2022/04/22 11:50:43;;;;;;;6.40;4.07;;;17.40;99.90;;;;;;5039167;28;36558;-78
2022/04/22 11:53:17;;;;;;;9.85;4.28;;;17.50;99.90;;;;;;5070012;28;37049;-78
2022/04/22 11:55:44;;;;;;;5.57;4.97;;;17.40;99.90;;;;;;5044108;28;38091;-78
2022/04/22 11:58:12;;;;;;;7.88;4.90;;;17.10;99.90;;;;;;5058450;28;38792;-79
2022/04/22 12:06:13;;;;;;;6.80;4.97;;;16.60;99.90;;;;;;5063478;28;40069;-78
2022/04/22 12:08:57;;;;;;;6.50;4.80;;;16.40;99.90;;;;;;5055465;28;37753;-76
2022/04/22 12:11:24;;;;;;;8.38;5.10;;;16.40;99.90;;;;;;5046761;28;37970;-78
2022/04/22 12:13:51;;;;;;;9.55;5.40;;;16.40;99.90;;;;;;5050649;28;38335;-76
2022/04/22 12:16:19;;;;;;;9.55;5.22;;;16.40;99.90;;;;;;5035341;28;38226;-78
2022/04/22 12:18:50;;;;;;;7.32;5.93;;;16.10;99.90;;;;;;5056352;28;37625;-78
2022/04/22 12:21:18;;;;;;;8.82;5.88;;;16.00;99.90;;;;;;5052821;28;38452;-78
2022/04/22 12:23:47;;;;;;;10.48;5.55;;;15.90;99.90;;;;;;5046600;28;37629;-78
2022/04/22 12:26:16;;;;;;;7.70;5.43;;;15.90;99.90;;;;;;5036693;28;39314;-78
2022/04/22 12:29:07;;;;;;;10.38;5.50;;;15.90;99.90;;;;;;5058242;28;38571;-78
2022/04/22 12:31:34;;;;;;;7.57;4.95;;;16.00;99.90;;;;;;5041487;28;49862;-78
2022/04/22 12:34:02;;;;;;;6.32;5.03;;;16.10;99.90;;;;;;5037822;28;37182;-78
2022/04/22 12:36:32;;;;;;;10.15;6.47;;;16.00;99.90;;;;;;5052150;28;47648;-78
2022/04/22 12:38:59;;;;;;;8.52;5.20;;;16.00;99.90;;;;;;5051754;28;39189;-77
2022/04/22 12:41:26;;;;;;;7.97;5.00;;;15.90;99.90;;;;;;5037524;28;38467;-78
2022/04/22 12:43:56;;;;;;;13.38;5.22;;;16.00;99.90;;;;;;5036853;28;37917;-78
2022/04/22 12:52:09;;;;;;;8.95;5.55;;;16.90;99.90;;;;;;5034834;28;39652;-79
2022/04/22 12:54:37;;;;;;;11.07;5.50;;;17.00;99.90;;;;;;5067717;28;37218;-77
2022/04/22 12:57:06;;;;;;;8.57;4.95;;;16.80;99.90;;;;;;5063994;28;39949;-77
2022/04/22 12:59:46;;;;;;;8.63;5.03;;;17.00;99.90;;;;;;5017487;28;38502;-77
2022/04/22 13:02:14;;;;;;;11.00;4.90;;;17.30;99.90;;;;;;5032220;28;38469;-76
2022/04/22 13:04:51;;;;;;;6.50;4.78;;;17.20;99.90;;;;;;5038947;28;38352;-78
2022/04/22 13:07:18;;;;;;;8.98;4.60;;;17.30;99.90;;;;;;5034752;28;37900;-77
2022/04/22 13:09:46;;;;;;;6.28;4.90;;;17.50;99.90;;;;;;5031720;28;39408;-79
2022/04/22 13:12:12;;;;;;;8.05;4.50;;;17.50;99.90;;;;;;5032705;28;38516;-77
2022/04/22 13:14:43;;;;;;;8.00;4.88;;;17.50;99.90;;;;;;5019797;28;36504;-79
2022/04/22 13:17:24;;;;;;;8.90;4.25;;;17.30;99.90;;;;;;5057530;28;40098;-76
2022/04/22 13:19:52;;;;;;;7.80;4.40;;;17.10;99.90;;;;;;5035913;28;38565;-76
2022/04/22 13:22:19;;;;;;;9.65;4.68;;;17.10;99.90;;;;;;5028459;28;36843;-77
2022/04/22 13:24:45;;;;;;;8.00;4.68;;;17.20;99.90;;;;;;5072249;28;37393;-78
2022/04/22 13:27:12;;;;;;;10.68;4.93;;;17.30;99.90;;;;;;5030808;28;37465;-78
2022/04/22 13:29:40;;;;;;;12.68;5.13;;;17.30;99.90;;;;;;5043355;28;37745;-77
2022/04/22 13:32:08;;;;;;;8.48;5.18;;;17.10;99.90;;;;;;5065495;28;38470;-77
2022/04/22 13:34:34;;;;;;;7.25;4.55;;;17.10;99.90;;;;;;5061219;28;37603;-76
2022/04/22 13:37:00;;;;;;;8.32;4.40;;;17.20;99.90;;;;;;5058419;28;38117;-77
2022/04/22 13:39:26;;;;;;;4.63;3.80;;;17.50;99.90;;;;;;5039415;28;39289;-77
2022/04/22 13:41:52;;;;;;;8.80;4.25;;;17.50;99.90;;;;;;5037040;28;38095;-76
2022/04/22 13:52:21;;;;;;;7.57;4.20;;;17.60;99.90;;;;;;5045497;28;36856;-77
2022/04/22 13:52:34;;;;;;;8.90;3.97;;;17.80;99.90;;;;;;5051549;28;49383;-78
2022/04/22 13:55:02;;;;;;;6.97;3.85;;;17.80;99.90;;;;;;5038574;28;36874;-78
2022/04/22 13:57:28;;;;;;;7.03;3.42;;;17.70;99.90;;;;;;5037172;28;47296;-78
2022/04/22 13:59:54;;;;;;;7.82;3.40;;;17.80;99.90;;;;;;5027797;28;38171;-78